createdAt,value
2023-04-07T00:00:09.581Z,96736.41
2023-04-07T00:03:02.713Z,96737.56
2023-04-07T00:05:30.813Z,96739.58
2023-04-07T00:07:58.881Z,96738.55
2023-04-07T00:10:27.058Z,96738.38
2023-04-07T00:12:55.027Z,96740.92
2023-04-07T00:15:22.973Z,96738.60
2023-04-07T00:17:51.014Z,96738.41
2023-04-07T00:20:19.154Z,96739.41
2023-04-07T00:22:47.123Z,96736.66
2023-04-07T00:25:15.601Z,96732.73
2023-04-07T00:27:43.702Z,96731.72
2023-04-07T00:30:12.002Z,96734.09
2023-04-07T00:32:40.712Z,96733.09
2023-04-07T00:35:09.351Z,96731.18
2023-04-07T00:37:37.521Z,96727.96
2023-04-07T00:40:06.127Z,96727.09
2023-04-07T00:42:35.111Z,96726.76
2023-04-07T00:45:03.180Z,96724.36
2023-04-07T00:47:31.215Z,96725.71
2023-04-07T00:49:59.234Z,96726.23
2023-04-07T00:52:29.147Z,96725.56
2023-04-07T00:54:57.131Z,96722.48
2023-04-07T00:57:25.612Z,96719.92
2023-04-07T00:59:53.798Z,96721.11
2023-04-07T01:02:34.248Z,96721.62
2023-04-07T01:05:09.490Z,96722.45
2023-04-07T01:08:00.990Z,96724.17
2023-04-07T01:10:41.958Z,96723.64
2023-04-07T01:13:22.527Z,96721.77
2023-04-07T01:15:53.028Z,96720.02
2023-04-07T01:18:25.223Z,96726.16
2023-04-07T01:20:56.505Z,96722.74
2023-04-07T01:23:41.644Z,96720.83
2023-04-07T01:26:19.039Z,96719.14
2023-04-07T01:28:57.752Z,96722.17
2023-04-07T01:31:26.914Z,96718.42
2023-04-07T01:33:56.168Z,96719.11
2023-04-07T01:36:25.422Z,96716.36
2023-04-07T01:38:53.431Z,96718.92
2023-04-07T01:41:22.451Z,96717.93
2023-04-07T01:43:51.044Z,96718.27
2023-04-07T01:46:19.305Z,96717.23
2023-04-07T01:48:48.413Z,96718.91
2023-04-07T01:51:19.070Z,96722.81
2023-04-07T01:53:47.978Z,96721.98
2023-04-07T01:56:16.831Z,96722.45
2023-04-07T01:58:47.870Z,96717.70
2023-04-07T02:01:18.736Z,96719.72
2023-04-07T02:03:56.586Z,96717.52
2023-04-07T02:06:29.901Z,96719.72
2023-04-07T02:09:00.662Z,96718.02
2023-04-07T02:11:29.534Z,96718.52
2023-04-07T02:14:01.803Z,96718.68
2023-04-07T02:16:32.887Z,96716.66
2023-04-07T02:19:03.397Z,96719.20
2023-04-07T02:21:33.511Z,96722.59
2023-04-07T02:24:02.213Z,96722.90
2023-04-07T02:26:35.259Z,96724.96
2023-04-07T02:29:04.082Z,96719.83
2023-04-07T02:31:32.130Z,96722.73
2023-04-07T02:34:01.557Z,96721.02
2023-04-07T02:36:29.469Z,96719.34
2023-04-07T02:38:57.500Z,96723.92
2023-04-07T02:41:26.304Z,96724.10
2023-04-07T02:43:54.416Z,96726.98
2023-04-07T02:46:22.825Z,96725.95
2023-04-07T02:48:52.505Z,96724.61
2023-04-07T02:51:20.756Z,96733.27
2023-04-07T02:53:48.930Z,96730.53
2023-04-07T02:56:17.237Z,96733.09
2023-04-07T02:58:45.503Z,96727.46
2023-04-07T03:01:13.734Z,96726.60
2023-04-07T03:03:44.899Z,96733.90
2023-04-07T03:06:16.792Z,96729.15
2023-04-07T03:08:54.282Z,96730.85
2023-04-07T03:11:22.473Z,96732.02
2023-04-07T03:13:51.061Z,96731.84
2023-04-07T03:16:19.452Z,96734.38
2023-04-07T03:18:59.122Z,96735.90
2023-04-07T03:21:29.026Z,96737.73
2023-04-07T03:23:57.071Z,96738.77
2023-04-07T03:26:25.155Z,96738.09
2023-04-07T03:28:53.775Z,96739.09
2023-04-07T03:31:22.615Z,96740.48
2023-04-07T03:33:52.519Z,96740.45
2023-04-07T03:36:21.445Z,96742.08
2023-04-07T03:38:49.416Z,96746.38
2023-04-07T03:41:18.623Z,96746.96
2023-04-07T03:43:48.369Z,96753.79
2023-04-07T03:46:16.775Z,96752.48
2023-04-07T03:48:45.401Z,96757.46
2023-04-07T03:51:13.890Z,96763.75
2023-04-07T03:53:42.066Z,96765.86
2023-04-07T03:56:28.967Z,96772.68
2023-04-07T03:58:58.685Z,96772.87
2023-04-07T04:01:33.307Z,96776.15
2023-04-07T04:04:08.298Z,96773.30
2023-04-07T04:06:36.349Z,96772.47
2023-04-07T04:09:11.656Z,96770.33
2023-04-07T04:11:44.361Z,96769.19
2023-04-07T04:14:12.622Z,96773.69
2023-04-07T04:16:41.823Z,96771.91
2023-04-07T04:19:21.718Z,96773.36
2023-04-07T04:21:50.025Z,96775.00
2023-04-07T04:24:19.057Z,96774.60
2023-04-07T04:26:47.839Z,96776.95
2023-04-07T04:29:16.556Z,96779.09
2023-04-07T04:31:44.848Z,96779.05
2023-04-07T04:34:13.306Z,96782.94
2023-04-07T04:36:43.207Z,96785.95
2023-04-07T04:39:12.316Z,96787.58
2023-04-07T04:41:40.907Z,96781.27
2023-04-07T04:44:10.738Z,96784.80
2023-04-07T04:46:40.805Z,96786.82
2023-04-07T04:49:09.130Z,96785.65
2023-04-07T04:51:37.371Z,96788.84
2023-04-07T04:54:12.135Z,96791.94
2023-04-07T04:56:40.830Z,96790.56
2023-04-07T04:59:08.901Z,96789.02
2023-04-07T05:01:43.174Z,96794.14
2023-04-07T05:04:14.667Z,96794.13
2023-04-07T05:06:47.459Z,96798.20
2023-04-07T05:09:17.483Z,96798.02
2023-04-07T05:11:46.788Z,96798.15
2023-04-07T05:14:15.069Z,96800.52
2023-04-07T05:16:47.129Z,96798.62
2023-04-07T05:19:19.465Z,96804.55
2023-04-07T05:21:47.621Z,96809.48
2023-04-07T05:24:15.958Z,96814.90
2023-04-07T05:26:46.296Z,96814.35
2023-04-07T05:29:14.269Z,96809.89
2023-04-07T05:31:42.358Z,96815.81
2023-04-07T05:34:12.156Z,96817.15
2023-04-07T05:36:45.459Z,96818.67
2023-04-07T05:39:13.428Z,96824.46
2023-04-07T05:41:42.533Z,96826.35
2023-04-07T05:44:11.116Z,96825.27
2023-04-07T05:46:41.548Z,96826.97
2023-04-07T05:49:19.564Z,96829.96
2023-04-07T05:51:52.388Z,96828.41
2023-04-07T05:54:21.175Z,96831.45
2023-04-07T05:56:50.072Z,96829.55
2023-04-07T05:59:18.296Z,96833.61
2023-04-07T06:01:46.901Z,96833.23
2023-04-07T06:04:15.064Z,96838.27
2023-04-07T06:06:43.350Z,96835.19
2023-04-07T06:09:11.416Z,96837.52
2023-04-07T06:11:39.292Z,96841.95
2023-04-07T06:14:07.270Z,96845.52
2023-04-07T06:16:35.882Z,96837.47
2023-04-07T06:19:04.034Z,96843.79
2023-04-07T06:21:32.521Z,96839.99
2023-04-07T06:24:00.809Z,96843.76
2023-04-07T06:26:29.081Z,96848.49
2023-04-07T06:28:57.996Z,96851.22
2023-04-07T06:31:27.149Z,96849.52
2023-04-07T06:33:55.550Z,96849.89
2023-04-07T06:36:23.941Z,96850.61
2023-04-07T06:38:54.694Z,96852.17
2023-04-07T06:41:22.761Z,96851.72
2023-04-07T06:43:53.603Z,96853.52
2023-04-07T06:46:21.529Z,96855.32
2023-04-07T06:48:49.434Z,96859.14
2023-04-07T06:51:17.523Z,96861.48
2023-04-07T06:53:45.810Z,96860.66
2023-04-07T06:56:14.089Z,96858.95
2023-04-07T06:58:42.057Z,96858.30
2023-04-07T07:01:10.249Z,96861.18
2023-04-07T07:03:38.364Z,96862.73
2023-04-07T07:06:06.805Z,96867.66
2023-04-07T07:08:35.146Z,96870.70
2023-04-07T07:11:03.369Z,96876.11
2023-04-07T07:13:31.439Z,96874.94
2023-04-07T07:15:59.344Z,96876.02
2023-04-07T07:18:28.483Z,96874.11
2023-04-07T07:20:57.228Z,96874.45
2023-04-07T07:23:25.180Z,96876.26
2023-04-07T07:25:53.155Z,96879.02
2023-04-07T07:28:21.926Z,96884.81
2023-04-07T07:30:50.064Z,96886.98
2023-04-07T07:33:18.010Z,96884.37
2023-04-07T07:35:46.171Z,96888.77
2023-04-07T07:38:14.148Z,96890.29
2023-04-07T07:40:42.327Z,96893.66
2023-04-07T07:43:10.481Z,96894.24
2023-04-07T07:45:38.328Z,96892.63
2023-04-07T07:48:06.458Z,96892.39
2023-04-07T07:50:34.322Z,96895.20
2023-04-07T07:53:02.590Z,96896.17
2023-04-07T07:55:30.574Z,96898.02
2023-04-07T07:57:58.435Z,96897.98
2023-04-07T08:00:26.527Z,96899.98
2023-04-07T08:02:54.993Z,96898.02
2023-04-07T08:05:23.189Z,96898.67
2023-04-07T08:07:53.555Z,96901.16
2023-04-07T08:10:23.328Z,96905.86
2023-04-07T08:12:51.521Z,96909.34
2023-04-07T08:15:19.581Z,96906.38
2023-04-07T08:17:47.796Z,96906.48
2023-04-07T08:20:16.568Z,96910.13
2023-04-07T08:22:44.509Z,96909.41
2023-04-07T08:25:12.409Z,96912.14
2023-04-07T08:27:40.275Z,96908.83
2023-04-07T08:30:08.456Z,96909.33
2023-04-07T08:32:37.491Z,96911.02
2023-04-07T08:35:05.738Z,96906.91
2023-04-07T08:37:34.322Z,96908.91
2023-04-07T08:40:03.171Z,96910.44
2023-04-07T08:42:32.244Z,96905.63
2023-04-07T08:45:07.064Z,96907.66
2023-04-07T08:47:36.277Z,96905.05
2023-04-07T08:50:08.621Z,96906.87
2023-04-07T08:52:48.886Z,96907.67
2023-04-07T08:55:17.458Z,96911.27
2023-04-07T08:57:46.254Z,96907.17
2023-04-07T09:00:15.063Z,96903.56
2023-04-07T09:02:45.566Z,96904.13
2023-04-07T09:05:17.127Z,96905.02
2023-04-07T09:07:45.010Z,96897.13
2023-04-07T09:10:13.102Z,96897.92
2023-04-07T09:12:41.360Z,96903.51
2023-04-07T09:15:09.446Z,96901.92
2023-04-07T09:17:37.542Z,96901.20
2023-04-07T09:20:06.104Z,96905.06
2023-04-07T09:22:45.809Z,96906.73
2023-04-07T09:25:13.901Z,96903.73
2023-04-07T09:27:53.681Z,96904.54
2023-04-07T09:30:21.987Z,96902.86
2023-04-07T09:32:50.059Z,96901.14
2023-04-07T09:35:18.306Z,96903.91
2023-04-07T09:38:00.926Z,96906.29
2023-04-07T09:40:28.989Z,96904.83
2023-04-07T09:42:58.695Z,96907.50
2023-04-07T09:45:34.525Z,96908.77
2023-04-07T09:48:07.912Z,96903.27
2023-04-07T09:50:37.160Z,96908.51
2023-04-07T09:53:05.172Z,96907.59
2023-04-07T09:55:34.016Z,96907.02
2023-04-07T09:58:02.638Z,96906.11
2023-04-07T10:00:30.685Z,96904.83
2023-04-07T10:02:59.207Z,96905.49
2023-04-07T10:05:28.087Z,96909.63
2023-04-07T10:07:56.560Z,96910.72
2023-04-07T10:10:25.550Z,96911.62
2023-04-07T10:12:54.451Z,96909.64
2023-04-07T10:15:23.036Z,96911.10
2023-04-07T10:17:52.260Z,96919.11
2023-04-07T10:20:23.233Z,96915.48
2023-04-07T10:22:53.902Z,96919.39
2023-04-07T10:25:24.373Z,96921.38
2023-04-07T10:27:59.443Z,96918.92
2023-04-07T10:30:29.107Z,96920.31
2023-04-07T10:32:57.175Z,96922.99
2023-04-07T10:35:26.153Z,96919.16
2023-04-07T10:38:16.769Z,96918.45
2023-04-07T10:40:44.947Z,96920.10
2023-04-07T10:43:13.948Z,96920.54
2023-04-07T10:45:59.384Z,96922.79
2023-04-07T10:48:29.020Z,96922.40
2023-04-07T10:51:06.383Z,96924.73
2023-04-07T10:53:35.077Z,96926.92
2023-04-07T10:56:03.385Z,96924.98
2023-04-07T10:58:32.082Z,96929.06
2023-04-07T11:01:00.698Z,96927.48
2023-04-07T11:03:29.469Z,96924.75
2023-04-07T11:06:11.302Z,96927.79
2023-04-07T11:08:43.415Z,96929.59
2023-04-07T11:11:12.515Z,96929.71
2023-04-07T11:13:41.409Z,96929.52
2023-04-07T11:16:09.826Z,96932.07
2023-04-07T11:18:38.385Z,96931.66
2023-04-07T11:21:07.127Z,96933.64
2023-04-07T11:23:42.108Z,96931.70
2023-04-07T11:26:11.606Z,96932.98
2023-04-07T11:28:47.379Z,96931.95
2023-04-07T11:31:23.127Z,96932.44
2023-04-07T11:33:55.443Z,96931.69
2023-04-07T11:36:27.382Z,96928.05
2023-04-07T11:38:57.799Z,96932.83
2023-04-07T11:41:27.598Z,96932.73
2023-04-07T11:44:08.980Z,96934.14
2023-04-07T11:46:37.533Z,96934.57
2023-04-07T11:49:10.052Z,96937.57
2023-04-07T11:51:38.118Z,96936.44
2023-04-07T11:54:06.411Z,96940.45
2023-04-07T11:56:44.923Z,96937.66
2023-04-07T11:59:25.828Z,96934.86
2023-04-07T12:01:56.276Z,96931.02
2023-04-07T12:04:26.220Z,96936.83
2023-04-07T12:06:54.296Z,96937.78
2023-04-07T12:09:27.437Z,96940.27
2023-04-07T12:11:56.338Z,96940.69
2023-04-07T12:14:24.994Z,96941.48
2023-04-07T12:16:56.405Z,96937.84
2023-04-07T12:19:25.962Z,96938.66
2023-04-07T12:21:54.231Z,96940.14
2023-04-07T12:24:22.503Z,96938.89
2023-04-07T12:26:50.606Z,96940.86
2023-04-07T12:29:20.435Z,96937.09
2023-04-07T12:31:50.760Z,96942.91
2023-04-07T12:34:19.575Z,96942.70
2023-04-07T12:36:47.713Z,96941.27
2023-04-07T12:39:16.654Z,96941.54
2023-04-07T12:41:46.203Z,96943.32
2023-04-07T12:44:14.389Z,96944.33
2023-04-07T12:46:43.287Z,96947.17
2023-04-07T12:49:11.678Z,96946.77
2023-04-07T12:51:40.339Z,96948.42
2023-04-07T12:54:08.442Z,96951.63
2023-04-07T12:56:36.825Z,96949.65
2023-04-07T12:59:05.078Z,96953.17
2023-04-07T13:01:34.326Z,96950.96
2023-04-07T13:04:02.448Z,96956.54
2023-04-07T13:06:30.810Z,96954.90
2023-04-07T13:08:58.718Z,96956.34
2023-04-07T13:11:27.430Z,96957.81
2023-04-07T13:13:57.377Z,96957.55
2023-04-07T13:16:26.488Z,96959.95
2023-04-07T13:18:54.629Z,96963.86
2023-04-07T13:21:43.084Z,96963.98
2023-04-07T13:24:11.653Z,96964.98
2023-04-07T13:26:39.827Z,96967.52
2023-04-07T13:29:07.715Z,96965.29
2023-04-07T13:31:36.145Z,96969.95
2023-04-07T13:34:04.159Z,96969.78
2023-04-07T13:36:32.040Z,96969.13
2023-04-07T13:38:59.875Z,96968.99
2023-04-07T13:41:27.878Z,96971.27
2023-04-07T13:43:56.694Z,96967.55
2023-04-07T13:46:28.925Z,96968.56
2023-04-07T13:48:57.273Z,96970.39
2023-04-07T13:51:25.252Z,96967.96
2023-04-07T13:53:53.483Z,96974.25
2023-04-07T13:56:22.352Z,96973.67
2023-04-07T13:58:50.769Z,96978.06
2023-04-07T14:01:18.972Z,96978.80
2023-04-07T14:03:48.165Z,96978.29
2023-04-07T14:06:16.474Z,96984.52
2023-04-07T14:08:44.506Z,96983.21
2023-04-07T14:11:12.581Z,96985.38
2023-04-07T14:13:40.449Z,96981.91
2023-04-07T14:16:08.479Z,96984.60
2023-04-07T14:18:37.344Z,96988.86
2023-04-07T14:21:05.758Z,96991.32
2023-04-07T14:23:37.296Z,96996.02
2023-04-07T14:26:09.526Z,96996.98
2023-04-07T14:28:37.732Z,96995.75
2023-04-07T14:31:06.238Z,96993.65
2023-04-07T14:33:34.131Z,96995.89
2023-04-07T14:36:02.295Z,97000.48
2023-04-07T14:38:30.318Z,97001.47
2023-04-07T14:41:09.506Z,97001.23
2023-04-07T14:43:38.812Z,97006.45
2023-04-07T14:46:07.289Z,97004.98
2023-04-07T14:48:35.242Z,97010.53
2023-04-07T14:51:09.885Z,97011.15
2023-04-07T14:53:37.949Z,97012.84
2023-04-07T14:56:06.750Z,97018.09
2023-04-07T14:58:37.456Z,97017.02
2023-04-07T15:01:06.539Z,97017.98
2023-04-07T15:03:35.216Z,97019.17
2023-04-07T15:06:07.617Z,97024.39
2023-04-07T15:08:36.103Z,97025.41
2023-04-07T15:11:10.431Z,97025.81
2023-04-07T15:13:38.461Z,97027.63
2023-04-07T15:16:10.777Z,97025.88
2023-04-07T15:18:40.582Z,97026.61
2023-04-07T15:21:09.166Z,97025.65
2023-04-07T15:23:38.078Z,97030.73
2023-04-07T15:26:06.480Z,97028.74
2023-04-07T15:28:34.733Z,97029.48
2023-04-07T15:31:02.672Z,97031.96
2023-04-07T15:33:30.697Z,97034.07
2023-04-07T15:35:59.506Z,97035.89
2023-04-07T15:38:28.878Z,97037.47
2023-04-07T15:40:56.841Z,97037.50
2023-04-07T15:43:25.030Z,97039.77
2023-04-07T15:45:55.465Z,97040.00
2023-04-07T15:48:23.541Z,97040.23
2023-04-07T15:50:52.943Z,97043.39
2023-04-07T15:53:21.256Z,97044.45
2023-04-07T15:55:49.302Z,97049.48
2023-04-07T15:58:17.270Z,97051.26
2023-04-07T16:00:45.564Z,97054.41
2023-04-07T16:03:13.642Z,97051.71
2023-04-07T16:05:41.858Z,97059.80
2023-04-07T16:08:11.023Z,97058.98
2023-04-07T16:10:39.900Z,97057.46
2023-04-07T16:13:07.773Z,97060.84
2023-04-07T16:15:40.898Z,97066.70
2023-04-07T16:18:10.583Z,97066.59
2023-04-07T16:20:38.561Z,97068.05
2023-04-07T16:23:06.636Z,97066.40
2023-04-07T16:25:35.291Z,97070.76
2023-04-07T16:28:03.529Z,97074.93
2023-04-07T16:30:31.683Z,97072.80
2023-04-07T16:33:00.938Z,97071.31
2023-04-07T16:35:31.017Z,97077.17
2023-04-07T16:38:05.044Z,97079.73
2023-04-07T16:40:33.713Z,97083.69
2023-04-07T16:43:01.708Z,97084.59
2023-04-07T16:45:29.888Z,97089.64
2023-04-07T16:47:57.911Z,97091.38
2023-04-07T16:50:26.114Z,97091.48
2023-04-07T16:52:55.223Z,97093.23
2023-04-07T16:55:24.012Z,97096.58
2023-04-07T16:57:51.887Z,97094.48
2023-04-07T17:00:21.100Z,97097.11
2023-04-07T17:02:49.384Z,97095.38
2023-04-07T17:05:18.366Z,97100.06
2023-04-07T17:07:47.360Z,97102.21
2023-04-07T17:10:15.432Z,97108.77
2023-04-07T17:12:43.834Z,97108.88
2023-04-07T17:15:11.793Z,97111.50
2023-04-07T17:17:39.947Z,97115.02
2023-04-07T17:20:08.466Z,97116.98
2023-04-07T17:22:36.435Z,97117.75
2023-04-07T17:25:06.140Z,97120.36
2023-04-07T17:27:34.320Z,97122.51
2023-04-07T17:30:03.026Z,97124.63
2023-04-07T17:32:30.930Z,97127.95
2023-04-07T17:34:58.836Z,97130.04
2023-04-07T17:37:26.828Z,97139.38
2023-04-07T17:39:54.810Z,97143.92
2023-04-07T17:42:22.855Z,97143.80
2023-04-07T17:44:52.812Z,97142.30
2023-04-07T17:47:20.882Z,97146.30
2023-04-07T17:49:48.858Z,97146.19
2023-04-07T17:52:17.144Z,97151.02
2023-04-07T17:54:45.110Z,97152.95
2023-04-07T17:57:14.623Z,97157.09
2023-04-07T17:59:42.611Z,97158.16
2023-04-07T18:02:10.579Z,97162.54
2023-04-07T18:04:38.826Z,97160.17
2023-04-07T18:07:07.028Z,97164.85
2023-04-07T18:09:35.517Z,97167.31
2023-04-07T18:12:03.631Z,97170.95
2023-04-07T18:14:32.084Z,97172.06
2023-04-07T18:17:00.046Z,97172.95
2023-04-07T18:19:30.210Z,97174.33
2023-04-07T18:22:00.108Z,97176.58
2023-04-07T18:24:28.067Z,97181.27
2023-04-07T18:26:56.869Z,97184.63
2023-04-07T18:29:25.048Z,97185.35
2023-04-07T18:31:53.214Z,97190.38
2023-04-07T18:34:21.626Z,97192.19
2023-04-07T18:36:49.613Z,97196.70
2023-04-07T18:39:17.627Z,97196.23
2023-04-07T18:41:47.564Z,97197.47
2023-04-07T18:44:15.436Z,97199.59
2023-04-07T18:46:43.309Z,97205.10
2023-04-07T18:49:11.587Z,97204.63
2023-04-07T18:51:39.658Z,97205.49
2023-04-07T18:54:08.769Z,97205.70
2023-04-07T18:56:36.740Z,97205.55
2023-04-07T18:59:04.719Z,97209.52
2023-04-07T19:01:32.708Z,97210.93
2023-04-07T19:04:01.580Z,97207.38
2023-04-07T19:06:31.987Z,97205.35
2023-04-07T19:08:59.854Z,97205.55
2023-04-07T19:11:27.854Z,97205.39
2023-04-07T19:13:56.632Z,97206.28
2023-04-07T19:16:24.906Z,97204.23
2023-04-07T19:18:53.419Z,97204.77
2023-04-07T19:21:21.397Z,97203.66
2023-04-07T19:23:49.647Z,97205.74
2023-04-07T19:26:18.154Z,97211.08
2023-04-07T19:28:46.441Z,97212.81
2023-04-07T19:31:14.762Z,97212.55
2023-04-07T19:33:42.691Z,97216.98
2023-04-07T19:36:11.172Z,97215.13
2023-04-07T19:38:39.364Z,97213.11
2023-04-07T19:41:07.341Z,97217.61
2023-04-07T19:43:35.522Z,97218.80
2023-04-07T19:46:03.969Z,97220.70
2023-04-07T19:48:32.693Z,97217.45
2023-04-07T19:51:01.180Z,97218.14
2023-04-07T19:53:29.576Z,97221.77
2023-04-07T19:55:57.527Z,97223.87
2023-04-07T19:58:25.624Z,97227.50
2023-04-07T20:00:54.163Z,97229.54
2023-04-07T20:03:22.936Z,97228.40
2023-04-07T20:05:53.017Z,97227.73
2023-04-07T20:08:20.873Z,97233.04
2023-04-07T20:10:50.600Z,97229.48
2023-04-07T20:13:18.585Z,97231.36
2023-04-07T20:15:46.946Z,97235.66
2023-04-07T20:18:16.981Z,97237.20
2023-04-07T20:20:45.968Z,97237.92
2023-04-07T20:23:16.175Z,97236.26
2023-04-07T20:25:44.289Z,97234.64
2023-04-07T20:28:12.167Z,97238.42
2023-04-07T20:30:40.065Z,97238.13
2023-04-07T20:33:08.466Z,97237.27
2023-04-07T20:35:37.240Z,97236.95
2023-04-07T20:38:05.206Z,97238.34
2023-04-07T20:40:37.038Z,97235.48
2023-04-07T20:43:05.686Z,97237.08
2023-04-07T20:45:34.311Z,97240.66
2023-04-07T20:48:02.226Z,97241.38
2023-04-07T20:50:30.668Z,97241.77
2023-04-07T20:52:58.653Z,97243.50
2023-04-07T20:55:27.440Z,97244.30
2023-04-07T20:57:55.620Z,97243.71
2023-04-07T21:00:23.697Z,97242.98
2023-04-07T21:02:51.910Z,97248.23
2023-04-07T21:05:20.709Z,97251.25
2023-04-07T21:07:48.943Z,97248.70
2023-04-07T21:10:16.916Z,97249.79
2023-04-07T21:12:44.803Z,97249.84
2023-04-07T21:15:12.755Z,97252.98
2023-04-07T21:17:40.694Z,97251.86
2023-04-07T21:20:09.041Z,97249.39
2023-04-07T21:22:37.114Z,97249.07
2023-04-07T21:25:07.351Z,97252.05
2023-04-07T21:27:36.361Z,97249.57
2023-04-07T21:30:06.069Z,97251.75
2023-04-07T21:32:34.124Z,97247.25
2023-04-07T21:35:02.311Z,97246.86
2023-04-07T21:37:30.503Z,97247.14
2023-04-07T21:39:58.439Z,97245.21
2023-04-07T21:42:26.419Z,97246.19
2023-04-07T21:44:54.596Z,97244.80
2023-04-07T21:47:22.767Z,97245.36
2023-04-07T21:49:50.846Z,97249.20
2023-04-07T21:52:18.723Z,97246.97
2023-04-07T21:54:46.895Z,97249.41
2023-04-07T21:57:14.929Z,97252.13
2023-04-07T21:59:43.150Z,97252.08
2023-04-07T22:02:12.990Z,97253.45
2023-04-07T22:04:41.103Z,97251.37
2023-04-07T22:07:09.031Z,97256.85
2023-04-07T22:09:37.121Z,97257.54
2023-04-07T22:12:05.173Z,97257.54
2023-04-07T22:14:33.002Z,97255.63
2023-04-07T22:17:01.116Z,97257.66
2023-04-07T22:19:29.102Z,97259.85
2023-04-07T22:21:56.987Z,97255.54
2023-04-07T22:24:24.941Z,97257.59
2023-04-07T22:26:54.055Z,97253.33
2023-04-07T22:29:21.845Z,97253.50
2023-04-07T22:31:49.787Z,97255.34
2023-04-07T22:34:18.163Z,97255.82
2023-04-07T22:36:46.570Z,97256.30
2023-04-07T22:39:14.467Z,97256.33
2023-04-07T22:41:42.389Z,97255.43
2023-04-07T22:44:10.315Z,97253.54
2023-04-07T22:46:38.409Z,97260.07
2023-04-07T22:49:06.562Z,97259.21
2023-04-07T22:51:34.497Z,97256.48
2023-04-07T22:54:02.371Z,97259.39
2023-04-07T22:56:31.271Z,97256.98
2023-04-07T22:59:05.803Z,97254.75
2023-04-07T23:01:33.986Z,97253.38
2023-04-07T23:04:02.244Z,97254.25
2023-04-07T23:06:30.231Z,97254.82
2023-04-07T23:08:58.076Z,97248.20
2023-04-07T23:11:25.964Z,97247.16
2023-04-07T23:13:53.936Z,97250.41
2023-04-07T23:16:21.898Z,97254.17
2023-04-07T23:18:50.384Z,97255.71
2023-04-07T23:21:18.368Z,97261.70
2023-04-07T23:23:46.338Z,97259.13
2023-04-07T23:26:14.340Z,97256.58
2023-04-07T23:28:42.281Z,97252.96
2023-04-07T23:31:10.168Z,97250.75
2023-04-07T23:33:38.118Z,97255.52
2023-04-07T23:36:06.458Z,97252.81
2023-04-07T23:38:36.442Z,97252.52
2023-04-07T23:41:04.415Z,97249.19
2023-04-07T23:43:33.618Z,97252.65
2023-04-07T23:46:01.915Z,97256.30
2023-04-07T23:48:31.017Z,97257.83
2023-04-07T23:51:00.274Z,97260.41
2023-04-07T23:53:28.222Z,97255.98
2023-04-07T23:55:56.351Z,97258.95
2023-04-07T23:58:24.329Z,97261.55
